createdAt,value
2022-10-24T00:00:17.443Z,30.228
2022-10-24T00:05:17.057Z,30.232
2022-10-24T00:10:17.217Z,30.229
2022-10-24T00:15:17.298Z,30.230
2022-10-24T00:20:17.105Z,30.233
2022-10-24T00:25:17.358Z,30.231
2022-10-24T00:30:17.224Z,30.230
2022-10-24T00:35:17.430Z,30.228
2022-10-24T00:40:17.272Z,30.227
2022-10-24T00:45:17.430Z,30.225
2022-10-24T00:50:17.267Z,30.224
2022-10-24T00:55:17.225Z,30.223
2022-10-24T01:00:17.550Z,30.225
2022-10-24T01:05:17.219Z,30.226
2022-10-24T01:10:17.318Z,30.225
2022-10-24T01:15:17.575Z,30.222
2022-10-24T01:20:17.290Z,30.216
2022-10-24T01:25:17.385Z,30.210
2022-10-24T01:30:17.367Z,30.211
2022-10-24T01:35:17.728Z,30.208
2022-10-24T01:40:17.478Z,30.202
2022-10-24T01:45:17.519Z,30.200
2022-10-24T01:50:17.420Z,30.199
2022-10-24T01:55:17.550Z,30.197
2022-10-24T02:00:17.466Z,30.196
2022-10-24T02:05:17.653Z,30.192
2022-10-24T02:10:17.406Z,30.193
2022-10-24T02:15:18.726Z,30.193
2022-10-24T02:20:17.620Z,30.194
2022-10-24T02:25:17.498Z,30.195
2022-10-24T02:30:17.684Z,30.192
2022-10-24T02:35:17.411Z,30.195
2022-10-24T02:40:17.655Z,30.196
2022-10-24T02:45:17.584Z,30.195
2022-10-24T02:50:17.562Z,30.192
2022-10-24T02:55:17.709Z,30.188
2022-10-24T03:00:17.562Z,30.186
2022-10-24T03:05:17.741Z,30.189
2022-10-24T03:10:17.783Z,30.185
2022-10-24T03:15:17.574Z,30.180
2022-10-24T03:20:17.714Z,30.180
2022-10-24T03:25:17.566Z,30.178
2022-10-24T03:30:17.698Z,30.176
2022-10-24T03:35:17.607Z,30.178
2022-10-24T03:40:17.625Z,30.177
2022-10-24T03:45:18.051Z,30.178
2022-10-24T03:50:17.643Z,30.175
2022-10-24T03:55:17.588Z,30.174
2022-10-24T04:00:16.634Z,30.174
2022-10-24T04:05:16.883Z,30.175
2022-10-24T04:10:16.683Z,30.176
2022-10-24T04:15:17.077Z,30.179
2022-10-24T04:20:16.838Z,30.179
2022-10-24T04:25:16.731Z,30.181
2022-10-24T04:30:17.036Z,30.184
2022-10-24T04:35:16.860Z,30.184
2022-10-24T04:40:16.895Z,30.178
2022-10-24T04:45:16.766Z,30.174
2022-10-24T04:50:16.809Z,30.177
2022-10-24T04:55:16.919Z,30.177
2022-10-24T05:00:17.152Z,30.171
2022-10-24T05:05:16.777Z,30.164
2022-10-24T05:10:16.863Z,30.161
2022-10-24T05:15:17.062Z,30.164
2022-10-24T05:20:16.916Z,30.167
2022-10-24T05:25:16.981Z,30.158
2022-10-24T05:30:17.082Z,30.155
2022-10-24T05:35:16.845Z,30.151
2022-10-24T05:40:16.870Z,30.153
2022-10-24T05:45:17.177Z,30.156
2022-10-24T05:50:17.093Z,30.150
2022-10-24T05:55:18.176Z,30.149
2022-10-24T06:00:17.262Z,30.155
2022-10-24T06:05:16.926Z,30.156
2022-10-24T06:10:17.004Z,30.155
2022-10-24T06:15:17.067Z,30.150
2022-10-24T06:20:17.036Z,30.151
2022-10-24T06:25:17.204Z,30.154
2022-10-24T06:30:17.144Z,30.163
2022-10-24T06:35:17.045Z,30.159
2022-10-24T06:40:17.104Z,30.150
2022-10-24T06:45:17.110Z,30.145
2022-10-24T06:50:17.944Z,30.144
2022-10-24T06:55:17.251Z,30.141
2022-10-24T07:00:17.273Z,30.139
2022-10-24T07:05:18.220Z,30.138
2022-10-24T07:10:17.149Z,30.136
2022-10-24T07:15:17.071Z,30.134
2022-10-24T07:20:17.362Z,30.138
2022-10-24T07:25:17.170Z,30.132
2022-10-24T07:30:17.376Z,30.138
2022-10-24T07:35:17.222Z,30.140
2022-10-24T07:40:18.584Z,30.145
2022-10-24T07:45:17.409Z,30.141
2022-10-24T07:50:17.166Z,30.134
2022-10-24T07:55:16.761Z,30.136
2022-10-24T08:00:16.268Z,30.137
2022-10-24T08:05:18.236Z,30.135
2022-10-24T08:10:16.169Z,30.140
2022-10-24T08:15:16.502Z,30.139
2022-10-24T08:20:16.213Z,30.142
2022-10-24T08:25:16.202Z,30.141
2022-10-24T08:30:16.512Z,30.142
2022-10-24T08:35:16.237Z,30.153
2022-10-24T08:40:16.434Z,30.161
2022-10-24T08:45:16.692Z,30.165
2022-10-24T08:50:16.526Z,30.161
2022-10-24T08:55:52.408Z,30.165
2022-10-24T09:00:16.442Z,30.166
2022-10-24T09:05:16.372Z,30.165
2022-10-24T09:10:16.349Z,30.168
2022-10-24T09:15:16.361Z,30.160
2022-10-24T09:20:16.347Z,30.159
2022-10-24T09:25:16.620Z,30.162
2022-10-24T09:30:16.554Z,30.160
2022-10-24T09:35:16.373Z,30.160
2022-10-24T09:40:16.413Z,30.157
2022-10-24T09:45:16.571Z,30.145
2022-10-24T09:50:16.438Z,30.140
2022-10-24T09:55:16.696Z,30.137
2022-10-24T10:00:16.976Z,30.127
2022-10-24T10:05:17.354Z,30.124
2022-10-24T10:10:16.547Z,30.136
2022-10-24T10:15:16.486Z,30.126
2022-10-24T10:20:18.860Z,30.127
2022-10-24T10:25:17.621Z,30.136
2022-10-24T10:30:16.708Z,30.139
2022-10-24T10:35:16.668Z,30.137
2022-10-24T10:40:16.521Z,30.149
2022-10-24T10:45:16.708Z,30.142
2022-10-24T10:50:16.632Z,30.144
2022-10-24T10:55:16.515Z,30.144
2022-10-24T11:00:16.601Z,30.149
2022-10-24T11:05:16.809Z,30.150
2022-10-24T11:10:16.834Z,30.151
2022-10-24T11:15:16.878Z,30.151
2022-10-24T11:20:16.657Z,30.152
2022-10-24T11:25:16.686Z,30.146
2022-10-24T11:30:16.827Z,30.145
2022-10-24T11:35:16.768Z,30.148
2022-10-24T11:40:16.712Z,30.150
2022-10-24T11:45:16.906Z,30.151
2022-10-24T11:50:18.048Z,30.153
2022-10-24T11:55:16.635Z,30.156
2022-10-24T12:00:16.743Z,30.158
2022-10-24T12:05:20.235Z,30.156
2022-10-24T12:10:16.757Z,30.155
2022-10-24T12:15:16.968Z,30.153
2022-10-24T12:20:17.001Z,30.155
2022-10-24T12:25:16.734Z,30.154
2022-10-24T12:30:17.173Z,30.156
2022-10-24T12:35:30.068Z,30.158
2022-10-24T12:40:16.877Z,30.156
2022-10-24T12:45:16.772Z,30.151
2022-10-24T12:50:16.857Z,30.150
2022-10-24T12:55:17.035Z,30.148
2022-10-24T13:00:17.042Z,30.150
2022-10-24T13:05:17.018Z,30.149
2022-10-24T13:10:16.849Z,30.149
2022-10-24T13:15:16.954Z,30.153
2022-10-24T13:20:16.850Z,30.150
2022-10-24T13:25:17.193Z,30.149
2022-10-24T13:30:17.303Z,30.157
2022-10-24T13:35:17.329Z,30.157
2022-10-24T13:40:16.871Z,30.157
2022-10-24T13:45:17.075Z,30.159
2022-10-24T13:50:16.935Z,30.161
2022-10-24T13:55:17.096Z,30.161
2022-10-24T14:00:17.089Z,30.161
2022-10-24T14:05:17.101Z,30.157
2022-10-24T14:10:17.015Z,30.160
2022-10-24T14:15:17.043Z,30.154
2022-10-24T14:20:17.362Z,30.155
2022-10-24T14:25:20.635Z,30.155
2022-10-24T14:30:17.103Z,30.152
2022-10-24T14:35:17.133Z,30.153
2022-10-24T14:40:17.305Z,30.162
2022-10-24T14:45:17.990Z,30.161
2022-10-24T14:50:17.979Z,30.162
2022-10-24T14:55:17.037Z,30.162
2022-10-24T15:00:17.298Z,30.157
2022-10-24T15:05:17.107Z,30.158
2022-10-24T15:10:17.397Z,30.159
2022-10-24T15:15:22.309Z,30.161
2022-10-24T15:20:17.166Z,30.160
2022-10-24T15:25:17.311Z,30.159
2022-10-24T15:30:17.277Z,30.160
2022-10-24T15:35:17.074Z,30.161
2022-10-24T15:40:17.618Z,30.163
2022-10-24T15:45:17.460Z,30.166
2022-10-24T15:50:17.408Z,30.164
2022-10-24T15:55:17.187Z,30.162
2022-10-24T16:00:17.351Z,30.161
2022-10-24T16:05:17.223Z,30.156
2022-10-24T16:10:17.339Z,30.160
2022-10-24T16:15:17.702Z,30.160
2022-10-24T16:20:17.230Z,30.156
2022-10-24T16:25:17.183Z,30.156
2022-10-24T16:30:17.502Z,30.152
2022-10-24T16:35:17.279Z,30.149
2022-10-24T16:40:17.412Z,30.147
2022-10-24T16:45:17.387Z,30.143
2022-10-24T16:50:17.581Z,30.144
2022-10-24T16:55:17.343Z,30.137
2022-10-24T17:00:17.650Z,30.135
2022-10-24T17:05:17.452Z,30.139
2022-10-24T17:10:20.649Z,30.140
2022-10-24T17:15:19.445Z,30.137
2022-10-24T17:20:17.682Z,30.136
2022-10-24T17:25:18.990Z,30.135
2022-10-24T17:30:17.731Z,30.129
2022-10-24T17:35:17.342Z,30.124
2022-10-24T17:40:17.729Z,30.130
2022-10-24T17:45:17.456Z,30.125
2022-10-24T17:50:17.565Z,30.124
2022-10-24T17:55:27.833Z,30.126
2022-10-24T18:00:17.761Z,30.134
2022-10-24T18:05:17.450Z,30.137
2022-10-24T18:10:17.530Z,30.137
2022-10-24T18:15:17.515Z,30.136
2022-10-24T18:20:17.846Z,30.131
2022-10-24T18:25:20.378Z,30.127
2022-10-24T18:30:17.590Z,30.129
2022-10-24T18:35:17.705Z,30.128
2022-10-24T18:40:17.767Z,30.124
2022-10-24T18:45:17.940Z,30.127
2022-10-24T18:50:17.832Z,30.124
2022-10-24T18:55:17.587Z,30.125
2022-10-24T19:00:17.729Z,30.128
2022-10-24T19:05:17.732Z,30.131
2022-10-24T19:10:18.095Z,30.133
2022-10-24T19:15:17.734Z,30.136
2022-10-24T19:20:17.643Z,30.141
2022-10-24T19:25:17.570Z,30.142
2022-10-24T19:30:18.510Z,30.138
2022-10-24T19:35:17.666Z,30.133
2022-10-24T19:40:17.867Z,30.124
2022-10-24T19:45:21.457Z,30.127
2022-10-24T19:50:18.088Z,30.135
2022-10-24T19:55:17.894Z,30.129
2022-10-24T20:00:18.026Z,30.142
2022-10-24T20:05:17.994Z,30.141
2022-10-24T20:10:17.939Z,30.154
2022-10-24T20:15:17.857Z,30.144
2022-10-24T20:20:17.962Z,30.146
2022-10-24T20:25:17.825Z,30.147
2022-10-24T20:30:17.835Z,30.140
2022-10-24T20:35:17.786Z,30.137
2022-10-24T20:40:17.885Z,30.133
2022-10-24T20:45:21.948Z,30.121
2022-10-24T20:50:17.838Z,30.117
2022-10-24T20:55:31.680Z,30.121
2022-10-24T21:00:19.479Z,30.130
2022-10-24T21:05:17.846Z,30.128
2022-10-24T21:10:17.907Z,30.128
2022-10-24T21:15:18.024Z,30.123
2022-10-24T21:20:18.024Z,30.114
2022-10-24T21:25:18.014Z,30.109
2022-10-24T21:30:18.377Z,30.104
2022-10-24T21:35:17.927Z,30.100
2022-10-24T21:40:17.935Z,30.105
2022-10-24T21:45:18.024Z,30.103
2022-10-24T21:50:18.250Z,30.107
2022-10-24T21:55:18.061Z,30.103
2022-10-24T22:00:18.188Z,30.105
2022-10-24T22:05:18.110Z,30.105
2022-10-24T22:10:18.239Z,30.105
2022-10-24T22:15:18.073Z,30.110
2022-10-24T22:20:18.055Z,30.115
2022-10-24T22:25:17.974Z,30.116
2022-10-24T22:30:18.324Z,30.113
2022-10-24T22:35:16.639Z,30.112
2022-10-24T22:40:18.384Z,30.115
2022-10-24T22:45:18.121Z,30.117
2022-10-24T22:50:18.216Z,30.121
2022-10-24T22:55:18.085Z,30.120
2022-10-24T23:00:18.253Z,30.119
2022-10-24T23:05:18.924Z,30.119
2022-10-24T23:10:18.366Z,30.119
2022-10-24T23:15:18.348Z,30.117
2022-10-24T23:20:16.457Z,30.122
2022-10-24T23:25:16.178Z,30.117
2022-10-24T23:30:16.307Z,30.116
2022-10-24T23:35:16.186Z,30.116
2022-10-24T23:40:16.345Z,30.123
2022-10-24T23:45:16.741Z,30.121
2022-10-24T23:50:16.409Z,30.122
2022-10-24T23:55:16.192Z,30.123
